createdAt,value
2019-05-03T00:02:12.354Z,17.55
2019-05-03T00:04:45.674Z,19.45
2019-05-03T00:07:17.236Z,21.23
2019-05-03T00:09:48.751Z,20.82
2019-05-03T00:12:22.146Z,23.60
2019-05-03T00:14:57.429Z,23.87
2019-05-03T00:17:28.714Z,23.20
2019-05-03T00:20:02.318Z,23.90
2019-05-03T00:22:34.555Z,21.77
2019-05-03T00:25:08.472Z,23.62
2019-05-03T00:27:39.177Z,22.65
2019-05-03T00:30:11.991Z,25.72
2019-05-03T00:32:43.320Z,23.80
2019-05-03T00:35:19.329Z,20.10
2019-05-03T00:37:52.864Z,24.67
2019-05-03T00:40:32.258Z,24.15
2019-05-03T00:43:03.299Z,26.97
2019-05-03T00:45:34.819Z,28.83
2019-05-03T00:48:06.299Z,26.80
2019-05-03T00:50:37.765Z,29.42
2019-05-03T00:53:08.982Z,28.92
2019-05-03T00:55:41.971Z,25.35
2019-05-03T00:58:13.526Z,31.02
2019-05-03T01:00:45.057Z,27.65
2019-05-03T01:03:16.174Z,29.80
2019-05-03T01:05:47.275Z,28.25
2019-05-03T01:08:18.493Z,26.97
2019-05-03T01:10:51.636Z,21.55
2019-05-03T01:13:23.113Z,27.10
2019-05-03T01:16:02.778Z,29.63
2019-05-03T01:18:34.204Z,25.68
2019-05-03T01:21:05.452Z,27.32
2019-05-03T01:23:36.977Z,26.45
2019-05-03T01:26:08.312Z,28.55
2019-05-03T01:28:39.508Z,26.23
2019-05-03T01:31:11.968Z,26.87
2019-05-03T01:33:43.284Z,27.45
2019-05-03T01:36:14.645Z,27.87
2019-05-03T01:38:46.541Z,24.85
2019-05-03T01:41:18.241Z,27.87
2019-05-03T01:43:49.864Z,27.00
2019-05-03T01:46:22.838Z,28.55
2019-05-03T01:49:22.874Z,29.42
2019-05-03T01:52:13.500Z,28.77
2019-05-03T01:54:45.012Z,28.67
2019-05-03T01:57:17.206Z,29.45
2019-05-03T01:59:49.058Z,27.13
2019-05-03T02:02:42.600Z,28.62
2019-05-03T02:05:33.103Z,27.55
2019-05-03T02:08:04.396Z,26.55
2019-05-03T02:10:36.326Z,28.35
2019-05-03T02:13:07.595Z,28.75
2019-05-03T02:15:39.309Z,27.90
2019-05-03T02:18:14.784Z,31.45
2019-05-03T02:20:44.910Z,29.77
2019-05-03T02:23:16.725Z,28.05
2019-05-03T02:25:56.201Z,30.10
2019-05-03T02:28:22.052Z,31.45
2019-05-03T02:30:54.702Z,31.15
2019-05-03T02:33:26.037Z,26.35
2019-05-03T02:35:57.270Z,30.02
2019-05-03T02:38:29.087Z,29.80
2019-05-03T02:41:02.688Z,30.45
2019-05-03T02:43:45.246Z,30.23
2019-05-03T02:46:38.622Z,27.67
2019-05-03T02:49:29.111Z,28.75
2019-05-03T02:52:00.270Z,30.57
2019-05-03T02:54:35.118Z,27.93
2019-05-03T02:57:06.301Z,27.40
2019-05-03T02:59:38.275Z,26.27
2019-05-03T03:02:09.511Z,24.12
2019-05-03T03:04:40.884Z,22.80
2019-05-03T03:07:15.152Z,26.12
2019-05-03T03:09:47.229Z,23.35
2019-05-03T03:12:21.073Z,23.02
2019-05-03T03:14:56.584Z,21.75
2019-05-03T03:17:36.454Z,22.22
2019-05-03T03:20:10.977Z,23.52
2019-05-03T03:22:46.693Z,21.37
2019-05-03T03:25:25.583Z,22.77
2019-05-03T03:28:01.590Z,21.73
2019-05-03T03:31:20.613Z,18.67
2019-05-03T03:33:51.797Z,20.27
2019-05-03T03:36:46.008Z,18.57
2019-05-03T03:38:57.046Z,20.00
2019-05-03T03:41:29.870Z,17.73
2019-05-03T03:44:05.816Z,17.00
2019-05-03T03:46:38.153Z,19.98
2019-05-03T03:49:10.529Z,15.40
2019-05-03T03:51:42.684Z,17.30
2019-05-03T03:54:19.262Z,16.62
2019-05-03T03:57:03.810Z,17.85
2019-05-03T03:59:31.611Z,18.05
2019-05-03T04:02:05.948Z,17.12
2019-05-03T04:04:37.469Z,16.67
2019-05-03T04:07:09.195Z,15.63
2019-05-03T04:09:45.722Z,16.12
2019-05-03T04:12:17.203Z,15.93
2019-05-03T04:15:05.708Z,18.27
2019-05-03T04:17:58.995Z,13.90
2019-05-03T04:20:36.080Z,13.08
2019-05-03T04:23:07.391Z,12.68
2019-05-03T04:25:39.239Z,12.70
2019-05-03T04:28:11.419Z,10.98
2019-05-03T04:30:45.749Z,16.20
2019-05-03T04:33:16.148Z,11.65
2019-05-03T04:35:47.478Z,5.30
2019-05-03T04:38:18.720Z,12.65
2019-05-03T04:40:49.787Z,5.33
2019-05-03T04:43:21.842Z,7.60
2019-05-03T04:46:12.911Z,4.42
2019-05-03T04:48:44.926Z,4.28
2019-05-03T04:51:16.844Z,3.85
2019-05-03T04:54:07.075Z,4.28
2019-05-03T04:56:38.420Z,3.27
2019-05-03T04:59:09.998Z,5.03
2019-05-03T05:01:41.354Z,4.25
2019-05-03T05:04:12.905Z,3.67
2019-05-03T05:06:45.019Z,3.60
2019-05-03T05:09:16.365Z,3.90
2019-05-03T05:11:47.435Z,4.10
2019-05-03T05:14:18.979Z,3.90
2019-05-03T05:16:50.518Z,4.17
2019-05-03T05:19:29.520Z,3.85
2019-05-03T05:22:05.967Z,4.10
2019-05-03T05:24:37.311Z,4.50
2019-05-03T05:27:25.421Z,4.87
2019-05-03T05:29:57.275Z,5.25
2019-05-03T05:32:28.996Z,4.65
2019-05-03T05:35:00.253Z,4.53
2019-05-03T05:37:31.418Z,8.65
2019-05-03T05:40:02.970Z,5.05
2019-05-03T05:42:35.062Z,5.00
2019-05-03T05:45:07.305Z,4.50
2019-05-03T05:47:44.868Z,4.67
2019-05-03T05:50:22.250Z,4.70
2019-05-03T05:52:55.187Z,7.42
2019-05-03T05:55:51.980Z,5.37
2019-05-03T05:58:31.276Z,5.87
2019-05-03T06:01:07.136Z,4.20
2019-05-03T06:03:38.397Z,4.12
2019-05-03T06:06:12.823Z,5.17
2019-05-03T06:08:52.235Z,4.25
2019-05-03T06:11:29.290Z,4.33
2019-05-03T06:14:05.361Z,9.60
2019-05-03T06:16:46.869Z,5.60
2019-05-03T06:19:49.380Z,4.92
2019-05-03T06:22:34.544Z,4.28
2019-05-03T06:25:16.571Z,5.78
2019-05-03T06:27:47.549Z,7.40
2019-05-03T06:30:38.117Z,8.35
2019-05-03T06:33:09.699Z,5.40
2019-05-03T06:35:40.836Z,5.45
2019-05-03T06:38:19.051Z,5.00
2019-05-03T06:40:50.595Z,5.75
2019-05-03T06:43:22.096Z,4.35
2019-05-03T06:45:54.838Z,6.90
2019-05-03T06:48:28.173Z,5.28
2019-05-03T06:51:04.655Z,5.05
2019-05-03T06:53:34.518Z,7.15
2019-05-03T06:56:06.284Z,5.33
2019-05-03T06:58:37.844Z,6.15
2019-05-03T07:01:17.315Z,5.67
2019-05-03T07:04:02.603Z,6.28
2019-05-03T07:06:44.992Z,4.53
2019-05-03T07:09:30.901Z,4.97
2019-05-03T07:12:04.497Z,5.47
2019-05-03T07:14:35.792Z,5.53
2019-05-03T07:17:07.653Z,6.00
2019-05-03T07:19:39.053Z,6.20
2019-05-03T07:22:10.170Z,5.33
2019-05-03T07:24:41.261Z,5.53
2019-05-03T07:27:12.567Z,8.35
2019-05-03T07:29:44.551Z,5.55
2019-05-03T07:32:15.875Z,5.70
2019-05-03T07:34:46.947Z,4.78
2019-05-03T07:37:18.701Z,4.35
2019-05-03T07:39:50.250Z,4.08
2019-05-03T07:42:21.358Z,4.22
2019-05-03T07:44:52.866Z,7.25
2019-05-03T07:47:24.664Z,6.22
2019-05-03T07:49:56.269Z,4.80
2019-05-03T07:52:27.686Z,4.55
2019-05-03T07:54:58.915Z,5.53
2019-05-03T07:57:38.818Z,5.90
2019-05-03T08:00:14.814Z,4.28
2019-05-03T08:02:46.058Z,6.05
2019-05-03T08:05:17.251Z,8.30
2019-05-03T08:07:48.949Z,7.17
2019-05-03T08:10:20.584Z,6.80
2019-05-03T08:12:51.817Z,9.35
2019-05-03T08:15:24.554Z,10.13
2019-05-03T08:17:55.966Z,8.85
2019-05-03T08:20:27.295Z,5.53
2019-05-03T08:22:58.795Z,4.33
2019-05-03T08:25:30.142Z,4.83
2019-05-03T08:28:01.316Z,5.47
2019-05-03T08:30:44.516Z,4.15
2019-05-03T08:33:25.067Z,5.60
2019-05-03T08:35:57.083Z,5.62
2019-05-03T08:38:28.585Z,5.25
2019-05-03T08:41:01.716Z,5.05
2019-05-03T08:43:32.832Z,5.05
2019-05-03T08:46:04.621Z,3.85
2019-05-03T08:48:35.869Z,7.33
2019-05-03T08:51:07.446Z,7.70
2019-05-03T08:53:38.641Z,5.37
2019-05-03T08:56:09.920Z,3.35
2019-05-03T08:58:41.025Z,7.53
2019-05-03T09:01:14.625Z,3.65
2019-05-03T09:03:45.935Z,3.95
2019-05-03T09:06:17.109Z,3.35
2019-05-03T09:08:48.511Z,3.05
2019-05-03T09:11:30.610Z,8.08
2019-05-03T09:13:58.160Z,5.83
2019-05-03T09:16:29.372Z,5.40
2019-05-03T09:19:00.882Z,4.35
2019-05-03T09:21:34.620Z,2.98
2019-05-03T09:24:05.390Z,2.95
2019-05-03T09:26:36.585Z,4.20
2019-05-03T09:29:07.847Z,4.92
2019-05-03T09:31:40.595Z,4.15
2019-05-03T09:34:11.902Z,2.80
2019-05-03T09:36:44.835Z,3.72
2019-05-03T09:39:17.713Z,10.15
2019-05-03T09:41:48.984Z,3.08
2019-05-03T09:44:20.161Z,3.00
2019-05-03T09:46:51.473Z,2.87
2019-05-03T09:49:22.736Z,3.30
2019-05-03T09:51:54.842Z,2.90
2019-05-03T09:54:38.796Z,5.70
2019-05-03T09:57:09.917Z,3.80
2019-05-03T09:59:53.568Z,4.08
2019-05-03T10:02:15.146Z,5.35
2019-05-03T10:04:46.578Z,3.87
2019-05-03T10:07:18.154Z,3.75
2019-05-03T10:09:49.703Z,4.15
2019-05-03T10:12:25.305Z,5.37
2019-05-03T10:14:56.466Z,5.22
2019-05-03T10:17:55.294Z,4.67
2019-05-03T10:20:27.625Z,3.30
2019-05-03T10:23:06.384Z,3.67
2019-05-03T10:25:40.195Z,6.60
2019-05-03T10:28:10.921Z,3.40
2019-05-03T10:30:47.863Z,2.90
2019-05-03T10:33:26.087Z,2.92
2019-05-03T10:35:56.836Z,4.33
2019-05-03T10:38:28.033Z,2.77
2019-05-03T10:40:59.546Z,3.22
2019-05-03T10:43:31.122Z,3.37
2019-05-03T10:46:04.957Z,3.47
2019-05-03T10:48:35.949Z,5.58
2019-05-03T10:51:07.507Z,2.35
2019-05-03T10:53:42.398Z,3.05
2019-05-03T10:56:24.420Z,3.45
2019-05-03T10:58:58.924Z,3.92
2019-05-03T11:01:37.592Z,2.17
2019-05-03T11:04:09.089Z,2.98
2019-05-03T11:06:40.710Z,3.58
2019-05-03T11:09:12.094Z,2.02
2019-05-03T11:11:45.173Z,2.72
2019-05-03T11:14:16.920Z,2.20
2019-05-03T11:16:48.039Z,2.62
2019-05-03T11:19:19.265Z,4.28
2019-05-03T11:21:50.508Z,3.08
2019-05-03T11:24:23.657Z,2.87
2019-05-03T11:26:56.257Z,2.00
2019-05-03T11:29:27.374Z,2.42
2019-05-03T11:32:10.353Z,2.40
2019-05-03T11:34:50.775Z,2.62
2019-05-03T11:37:41.263Z,3.60
2019-05-03T11:40:12.640Z,2.02
2019-05-03T11:42:44.822Z,3.10
2019-05-03T11:45:16.456Z,4.75
2019-05-03T11:47:48.668Z,2.95
2019-05-03T11:50:20.183Z,4.25
2019-05-03T11:52:51.623Z,3.15
2019-05-03T11:55:22.941Z,3.08
2019-05-03T11:57:56.407Z,5.03
2019-05-03T12:00:32.070Z,4.92
2019-05-03T12:03:11.904Z,4.30
2019-05-03T12:05:45.595Z,6.10
2019-05-03T12:08:17.027Z,7.83
2019-05-03T12:10:57.244Z,3.87
2019-05-03T12:13:30.050Z,4.47
2019-05-03T12:16:14.647Z,3.02
2019-05-03T12:18:48.930Z,3.92
2019-05-03T12:21:10.395Z,2.98
2019-05-03T12:23:42.549Z,4.08
2019-05-03T12:26:17.478Z,3.70
2019-05-03T12:28:48.728Z,2.47
2019-05-03T12:31:33.468Z,2.62
2019-05-03T12:33:55.001Z,2.90
2019-05-03T12:36:26.241Z,3.47
2019-05-03T12:38:59.414Z,4.50
2019-05-03T12:41:30.606Z,3.58
2019-05-03T12:44:01.783Z,2.47
2019-05-03T12:46:33.002Z,3.35
2019-05-03T12:49:05.276Z,3.65
2019-05-03T12:51:36.462Z,2.67
2019-05-03T12:54:07.707Z,1.98
2019-05-03T12:56:41.286Z,3.15
2019-05-03T12:59:26.734Z,2.40
2019-05-03T13:02:10.846Z,4.05
2019-05-03T13:04:44.660Z,3.47
2019-05-03T13:07:35.432Z,2.80
2019-05-03T13:10:07.975Z,4.37
2019-05-03T13:12:49.890Z,2.85
2019-05-03T13:15:14.406Z,6.40
2019-05-03T13:17:46.104Z,2.00
2019-05-03T13:20:17.791Z,3.45
2019-05-03T13:22:49.057Z,2.27
2019-05-03T13:25:20.534Z,4.25
2019-05-03T13:27:54.651Z,5.37
2019-05-03T13:30:25.407Z,3.30
2019-05-03T13:32:56.779Z,3.30
2019-05-03T13:35:27.980Z,4.58
2019-05-03T13:37:59.187Z,3.40
2019-05-03T13:40:30.394Z,4.58
2019-05-03T13:43:05.904Z,4.50
2019-05-03T13:45:35.718Z,4.05
2019-05-03T13:48:07.401Z,3.65
2019-05-03T13:50:39.912Z,3.60
2019-05-03T13:53:12.146Z,3.90
2019-05-03T13:55:44.571Z,2.12
2019-05-03T13:58:16.074Z,2.77
2019-05-03T14:00:47.490Z,2.90
2019-05-03T14:03:19.794Z,3.67
2019-05-03T14:05:51.268Z,3.67
2019-05-03T14:08:22.284Z,3.62
2019-05-03T14:10:55.560Z,3.45
2019-05-03T14:13:26.458Z,3.75
2019-05-03T14:16:00.359Z,2.60
2019-05-03T14:18:31.294Z,2.77
2019-05-03T14:21:21.908Z,3.05
2019-05-03T14:24:12.418Z,2.58
2019-05-03T14:26:44.805Z,5.72
2019-05-03T14:29:16.450Z,2.52
2019-05-03T14:31:48.066Z,3.27
2019-05-03T14:34:19.629Z,4.17
2019-05-03T14:36:51.026Z,4.28
2019-05-03T14:39:22.259Z,2.80
2019-05-03T14:41:55.339Z,5.22
2019-05-03T14:44:26.289Z,2.85
2019-05-03T14:46:59.208Z,2.50
2019-05-03T14:49:30.706Z,5.05
2019-05-03T14:52:01.764Z,3.55
2019-05-03T14:54:34.731Z,3.67
2019-05-03T14:57:29.522Z,4.50
2019-05-03T15:00:07.022Z,4.87
2019-05-03T15:02:58.074Z,3.15
2019-05-03T15:05:29.653Z,4.83
2019-05-03T15:08:00.858Z,2.30
2019-05-03T15:10:35.000Z,4.10
2019-05-03T15:13:07.337Z,3.35
2019-05-03T15:15:38.512Z,5.72
2019-05-03T15:18:09.788Z,3.08
2019-05-03T15:20:41.334Z,2.72
2019-05-03T15:23:14.682Z,3.75
2019-05-03T15:25:46.053Z,3.50
2019-05-03T15:28:17.265Z,2.25
2019-05-03T15:30:48.517Z,2.95
2019-05-03T15:33:20.087Z,3.47
2019-05-03T15:35:51.273Z,4.70
2019-05-03T15:38:22.555Z,5.15
2019-05-03T15:40:54.877Z,2.00
2019-05-03T15:43:54.869Z,3.15
2019-05-03T15:46:33.956Z,3.00
2019-05-03T15:49:06.541Z,2.77
2019-05-03T15:51:37.701Z,4.97
2019-05-03T15:54:09.205Z,4.15
2019-05-03T15:56:40.333Z,2.70
2019-05-03T15:59:11.610Z,3.35
2019-05-03T16:01:43.004Z,3.60
2019-05-03T16:04:14.446Z,3.62
2019-05-03T16:06:46.846Z,3.08
2019-05-03T16:09:20.761Z,2.67
2019-05-03T16:11:56.521Z,3.72
2019-05-03T16:14:27.850Z,2.00
2019-05-03T16:16:59.624Z,3.80
2019-05-03T16:19:31.061Z,2.25
2019-05-03T16:22:04.784Z,3.87
2019-05-03T16:24:36.418Z,4.10
2019-05-03T16:27:17.048Z,3.83
2019-05-03T16:29:48.744Z,2.52
2019-05-03T16:32:20.710Z,2.45
2019-05-03T16:34:52.235Z,2.77
2019-05-03T16:37:25.455Z,2.77
2019-05-03T16:39:57.895Z,5.08
2019-05-03T16:42:29.272Z,2.30
2019-05-03T16:45:00.461Z,2.80
2019-05-03T16:47:32.063Z,2.52
2019-05-03T16:50:06.177Z,3.17
2019-05-03T16:52:37.846Z,3.92
2019-05-03T16:55:09.100Z,3.00
2019-05-03T16:57:40.342Z,2.15
2019-05-03T17:00:12.222Z,2.92
2019-05-03T17:02:44.325Z,4.50
2019-05-03T17:05:37.726Z,3.98
2019-05-03T17:08:34.717Z,4.17
2019-05-03T17:11:08.859Z,3.77
2019-05-03T17:13:40.941Z,3.45
2019-05-03T17:16:14.475Z,2.98
2019-05-03T17:18:45.443Z,3.15
2019-05-03T17:21:16.632Z,8.88
2019-05-03T17:23:48.464Z,2.85
2019-05-03T17:26:19.892Z,3.62
2019-05-03T17:28:51.108Z,2.80
2019-05-03T17:31:24.287Z,3.42
2019-05-03T17:33:57.000Z,5.20
2019-05-03T17:36:29.231Z,4.00
2019-05-03T17:39:05.254Z,3.33
2019-05-03T17:41:47.411Z,5.03
2019-05-03T17:44:23.872Z,3.85
2019-05-03T17:46:55.227Z,3.60
2019-05-03T17:49:28.283Z,2.87
2019-05-03T17:52:21.684Z,2.80
2019-05-03T17:55:12.246Z,5.95
2019-05-03T17:57:55.107Z,3.08
2019-05-03T18:00:49.416Z,3.00
2019-05-03T18:03:22.579Z,4.00
2019-05-03T18:05:59.454Z,4.58
2019-05-03T18:08:36.728Z,2.98
2019-05-03T18:11:10.609Z,4.17
2019-05-03T18:13:41.916Z,2.70
2019-05-03T18:16:14.101Z,2.20
2019-05-03T18:18:45.490Z,4.00
2019-05-03T18:21:16.708Z,4.08
2019-05-03T18:23:48.074Z,6.58
2019-05-03T18:26:19.298Z,4.40
2019-05-03T18:28:51.571Z,5.67
2019-05-03T18:31:25.193Z,4.17
2019-05-03T18:33:56.312Z,2.22
2019-05-03T18:36:27.636Z,3.33
2019-05-03T18:38:59.623Z,6.25
2019-05-03T18:41:31.227Z,3.37
2019-05-03T18:44:19.940Z,2.70
2019-05-03T18:46:57.091Z,4.35
2019-05-03T18:49:29.205Z,4.90
2019-05-03T18:52:00.642Z,4.47
2019-05-03T18:54:31.814Z,4.12
2019-05-03T18:57:04.962Z,4.45
2019-05-03T18:59:35.970Z,6.60
2019-05-03T19:02:07.547Z,5.90
2019-05-03T19:04:49.954Z,4.55
2019-05-03T19:07:40.594Z,3.45
2019-05-03T19:10:35.392Z,4.95
2019-05-03T19:13:20.389Z,4.60
2019-05-03T19:15:52.465Z,3.98
2019-05-03T19:18:32.634Z,4.30
2019-05-03T19:21:04.632Z,4.05
2019-05-03T19:23:36.266Z,5.97
2019-05-03T19:26:07.758Z,24.43
2019-05-03T19:28:39.253Z,5.17
2019-05-03T19:31:10.675Z,4.37
2019-05-03T19:33:42.777Z,6.05
2019-05-03T19:36:14.979Z,3.05
2019-05-03T19:38:46.675Z,3.45
2019-05-03T19:41:18.101Z,5.08
2019-05-03T19:43:49.492Z,4.28
2019-05-03T19:46:21.245Z,4.40
2019-05-03T19:48:54.717Z,3.67
2019-05-03T19:51:26.900Z,5.22
2019-05-03T19:53:58.662Z,4.95
2019-05-03T19:56:30.043Z,5.35
2019-05-03T19:59:05.226Z,4.80
2019-05-03T20:01:52.488Z,4.80
2019-05-03T20:04:42.754Z,3.70
2019-05-03T20:07:45.145Z,4.28
2019-05-03T20:10:18.109Z,4.00
2019-05-03T20:12:52.581Z,6.72
2019-05-03T20:15:23.991Z,6.97
2019-05-03T20:17:59.936Z,4.45
2019-05-03T20:20:28.842Z,5.62
2019-05-03T20:23:00.851Z,4.45
2019-05-03T20:25:32.251Z,5.03
2019-05-03T20:28:05.060Z,5.25
2019-05-03T20:30:36.900Z,4.08
2019-05-03T20:33:08.120Z,4.30
2019-05-03T20:35:39.974Z,7.28
2019-05-03T20:38:12.842Z,6.33
2019-05-03T20:40:45.061Z,4.35
2019-05-03T20:43:44.606Z,4.30
2019-05-03T20:46:19.487Z,5.03
2019-05-03T20:48:53.597Z,4.03
2019-05-03T20:51:25.195Z,4.83
2019-05-03T20:53:56.693Z,5.47
2019-05-03T20:56:27.968Z,5.12
2019-05-03T20:58:59.542Z,4.83
2019-05-03T21:01:30.691Z,6.35
2019-05-03T21:04:01.914Z,4.95
2019-05-03T21:06:35.856Z,4.37
2019-05-03T21:09:08.696Z,7.35
2019-05-03T21:11:41.786Z,7.78
2019-05-03T21:14:15.422Z,5.83
2019-05-03T21:17:05.264Z,5.10
2019-05-03T21:19:44.710Z,5.95
2019-05-03T21:22:19.333Z,3.90
2019-05-03T21:24:56.072Z,4.12
2019-05-03T21:27:27.549Z,5.47
2019-05-03T21:29:58.790Z,4.35
2019-05-03T21:32:30.215Z,5.92
2019-05-03T21:35:01.766Z,5.35
2019-05-03T21:37:34.897Z,5.75
2019-05-03T21:40:07.176Z,6.85
2019-05-03T21:42:38.377Z,7.28
2019-05-03T21:45:11.688Z,5.50
2019-05-03T21:47:48.977Z,6.58
2019-05-03T21:50:21.133Z,5.62
2019-05-03T21:52:54.770Z,6.75
2019-05-03T21:55:27.092Z,5.10
2019-05-03T21:57:58.837Z,5.90
2019-05-03T22:00:45.390Z,8.25
2019-05-03T22:03:17.200Z,5.15
2019-05-03T22:05:55.144Z,4.40
2019-05-03T22:08:22.303Z,6.53
2019-05-03T22:10:55.375Z,6.00
2019-05-03T22:13:26.479Z,6.95
2019-05-03T22:16:15.490Z,4.70
2019-05-03T22:18:47.085Z,6.50
2019-05-03T22:21:25.386Z,4.42
2019-05-03T22:24:21.825Z,5.10
2019-05-03T22:26:56.624Z,5.22
2019-05-03T22:29:28.562Z,5.33
2019-05-03T22:32:00.331Z,5.30
2019-05-03T22:34:31.486Z,6.17
2019-05-03T22:37:02.843Z,4.87
2019-05-03T22:39:34.881Z,4.67
2019-05-03T22:42:06.986Z,5.37
2019-05-03T22:44:38.465Z,4.22
2019-05-03T22:47:10.636Z,5.85
2019-05-03T22:49:41.651Z,4.65
2019-05-03T22:52:15.256Z,6.17
2019-05-03T22:54:46.507Z,5.72
2019-05-03T22:57:17.731Z,7.22
2019-05-03T22:59:49.115Z,5.25
2019-05-03T23:02:20.332Z,6.60
2019-05-03T23:04:51.829Z,7.33
2019-05-03T23:07:24.987Z,6.55
2019-05-03T23:09:57.437Z,5.05
2019-05-03T23:12:28.875Z,5.33
2019-05-03T23:15:00.334Z,8.25
2019-05-03T23:17:32.129Z,6.37
2019-05-03T23:20:08.525Z,5.35
2019-05-03T23:22:40.353Z,5.12
2019-05-03T23:25:11.824Z,5.37
2019-05-03T23:27:44.500Z,6.95
2019-05-03T23:30:16.240Z,6.45
2019-05-03T23:32:48.097Z,6.10
2019-05-03T23:35:19.284Z,7.40
2019-05-03T23:37:50.580Z,7.05
2019-05-03T23:40:22.050Z,5.05
2019-05-03T23:42:54.459Z,7.87
2019-05-03T23:45:26.046Z,5.78
2019-05-03T23:47:57.502Z,5.72
2019-05-03T23:50:28.716Z,5.47
2019-05-03T23:53:01.235Z,5.40
2019-05-03T23:55:38.286Z,6.87
2019-05-03T23:58:09.795Z,6.17
